Overview Statistics Trail Chart Weather Telemetry Raw packets
 

This is the latest recevied weather packets stored in our database for station/object KJ6HT. If no packets are shown the sender has not sent any weather packets the latest 10 day(s).

<< 28 29 30 31 32 33 34 >>
Time Temp. Humidity Pressure Rain* Wind** Luminosity Snow
1787964316 36.11° C 39% 1007.4 hPa 0 mm - - -
1787963469 36.11° C 39% 1007.4 hPa 0 mm - - -
1787962522 36.67° C 37% 1007.1 hPa 0 mm - - -
1787961684 37.22° C 37% 1006.9 hPa 0 mm - - -
1787960733 37.78° C 35% 1006.8 hPa 0 mm - - -
1787959892 37.78° C 35% 1006.9 hPa 0 mm - - -
1787958974 37.78° C 35% 1007 hPa 0 mm - - -
1787958028 38.33° C 34% 1007.2 hPa 0 mm - - -
1787957173 38.89° C 34% 1007.3 hPa 0 mm - - -
1787956265 38.89° C 34% 1007.5 hPa 0 mm - - -
1787955343 39.44° C 34% 1007.6 hPa 0 mm - - -
1787954417 40° C 32% 1007.8 hPa 0 mm - - -
1787953564 40° C 33% 1007.9 hPa 0 mm - - -
1787952604 39.44° C 34% 1008.3 hPa 0 mm - - -
1787951762 40° C 33% 1008.4 hPa 0 mm - - -
1787950823 40° C 32% 1008.6 hPa 0 mm - - -
1787949972 40° C 33% 1008.6 hPa 0 mm - - -
1787949040 40° C 33% 1008.7 hPa 0 mm - - -
1787948176 40° C 35% 1008.8 hPa 0 mm - - -
1787947234 39.44° C 35% 1009 hPa 0 mm - - -
1787946377 40° C 31% 1009.2 hPa 0 mm - - -
1787945431 38.89° C 32% 1009.3 hPa 0 mm - - -
1787944573 37.78° C 35% 1009.5 hPa 0 mm - - -
1787943626 38.33° C 35% 1009.7 hPa 0 mm - - -
1787942776 36.67° C 37% 1009.9 hPa 0 mm - - -

* Rain latest hour (hover to see other rain measurements)
** Current wind speed in m/s (hover to see current wind gust speed)